Jordan, MT

3:32 AM MDT on October 24, 2014 (GMT -0600)
RAWS KING COULEE MT US | Change Station
CLOSE
Current Station
Personal Weather Station
Location: Jordan, MT
Elevation: 2759 ft
Nearby Weather Stations
Active Advisory: Lake Wind Advisory

Elev 2759 ft 47.80 °N, 107.02 °W | Updated 48 minutes ago

Mostly Cloudy
Mostly Cloudy
56 °F
Feels Like 56 °F
N
5
Wind Variable Wind from SW
Gusts 12.0 mph

Today
High -- | Low -- °F
--% Chance of Precip.
Yesterday
High -- | Low -- °F
Precip. -- in
7:39 AM 6:02 PM
New Moon, 0% visible
Pressure 29.81 in
Visibility 10.0 miles
Clouds Overcast 11000 ft
Dew Point 38 °F
Humidity 50%
Rainfall 0.00 in
Snow Depth Not available.
UV 0 out of 12
Pollen 2.10 out of 12
Air Quality Not available.
Flu Activity No Activity
METAR KGGW 240853Z AUTO 14004KT 10SM OVC110 09/06 A2981 RMK AO2 RAE12 SLP094 P0000 60000 T00940056 51014 $

More Conditions Fewer Conditions

Pressure 29.81 in
Visibility 10.0 miles
Clouds Overcast 11000 ft
Dew Point 38 °F
Humidity 50%
Rainfall 0.00 in
Snow Depth Not available.
UV 0 out of 12
Pollen 2.10 out of 12
Air Quality Not available.
Flu Activity No Activity
METAR KGGW 240853Z AUTO 14004KT 10SM OVC110 09/06 A2981 RMK AO2 RAE12 SLP094 P0000 60000 T00940056 51014 $

More Conditions Fewer Conditions

10-Day Weather Forecast

Almanac

Astronomy

Oct. 24, 2014 Rise Set
Actual Time 7:39 AM MDT 6:02 PM MDT
Civil Twilight 7:07 AM MDT 6:34 PM MDT
Nautical Twilight 6:31 AM MDT 7:10 PM MDT
Astronomical Twilight 5:56 AM MDT 7:45 PM MDT
Moon 8:23 AM MDT 6:41 PM MDT
Length of Visible Light 11h 26m
Length of Day
10h 23m
Tomorrow will be 3m 13s shorter.
New Moon, 0% of the Moon is Illuminated
Today
New Moon
Oct 30
First Quarter
Nov 6
Full
Nov 14
Last Quarter
Nov 22
New

Today's Extremes

State Highs State Lows

Community

WunderPhotos

Upload Photos

1,764,513 photos uploaded!

WunderBlogs® & News

Nearby

Snow Depth

Station Depth Elevation
Crystal Lake 1 in 6050 ft
Daisy Peak 0 in 7600 ft
Spur Park 1 in 8100 ft
Deadman Creek 0 in 6450 ft
Onion Park 0 in 7410 ft

Earthquake Activity

City Distance Mag. Time & Date
No recent earthquake activity has been reported nearby.
Minimum magnitude displayed is 2.5.

Coastal Water Temperatures

Place Temperature
No Stations Reporting

Nearby Weather Stations